sensor_id;sensor_type;location;lat;lon;timestamp;P1;durP1;ratioP1;P2;durP2;ratioP2
70301;SDS011;57706;56.326;43.882;2023-02-15T00:02:26;23.48;;;10.18;;
70301;SDS011;57706;56.326;43.882;2023-02-15T00:04:51;20.10;;;10.25;;
70301;SDS011;57706;56.326;43.882;2023-02-15T00:07:18;18.65;;;9.80;;
70301;SDS011;57706;56.326;43.882;2023-02-15T00:09:45;23.67;;;10.82;;
70301;SDS011;57706;56.326;43.882;2023-02-15T00:12:11;20.83;;;9.57;;
70301;SDS011;57706;56.326;43.882;2023-02-15T00:14:38;22.08;;;10.35;;
70301;SDS011;57706;56.326;43.882;2023-02-15T00:17:03;21.13;;;9.55;;
70301;SDS011;57706;56.326;43.882;2023-02-15T00:19:29;21.38;;;10.25;;
70301;SDS011;57706;56.326;43.882;2023-02-15T00:21:55;23.20;;;9.98;;
70301;SDS011;57706;56.326;43.882;2023-02-15T00:24:21;20.52;;;10.15;;
70301;SDS011;57706;56.326;43.882;2023-02-15T00:26:47;21.63;;;8.98;;
70301;SDS011;57706;56.326;43.882;2023-02-15T00:29:15;21.20;;;9.63;;
70301;SDS011;57706;56.326;43.882;2023-02-15T00:31:42;19.55;;;9.63;;
70301;SDS011;57706;56.326;43.882;2023-02-15T00:36:39;20.38;;;10.10;;
70301;SDS011;57706;56.326;43.882;2023-02-15T00:39:05;18.38;;;9.65;;
70301;SDS011;57706;56.326;43.882;2023-02-15T00:41:31;20.80;;;9.63;;
70301;SDS011;57706;56.326;43.882;2023-02-15T00:44:17;19.60;;;8.77;;
70301;SDS011;57706;56.326;43.882;2023-02-15T00:46:43;19.88;;;9.27;;
70301;SDS011;57706;56.326;43.882;2023-02-15T00:49:08;19.50;;;9.00;;
70301;SDS011;57706;56.326;43.882;2023-02-15T00:51:36;19.63;;;9.38;;
70301;SDS011;57706;56.326;43.882;2023-02-15T00:54:03;21.05;;;9.02;;
70301;SDS011;57706;56.326;43.882;2023-02-15T00:56:29;21.40;;;10.20;;
70301;SDS011;57706;56.326;43.882;2023-02-15T00:58:54;19.95;;;10.00;;
70301;SDS011;57706;56.326;43.882;2023-02-15T01:01:21;23.13;;;9.77;;
70301;SDS011;57706;56.326;43.882;2023-02-15T01:03:47;22.77;;;11.43;;
70301;SDS011;57706;56.326;43.882;2023-02-15T01:06:13;21.27;;;8.93;;
70301;SDS011;57706;56.326;43.882;2023-02-15T01:08:42;17.52;;;8.70;;
70301;SDS011;57706;56.326;43.882;2023-02-15T01:11:10;21.38;;;9.52;;
70301;SDS011;57706;56.326;43.882;2023-02-15T01:13:37;19.98;;;9.82;;
70301;SDS011;57706;56.326;43.882;2023-02-15T01:16:04;22.33;;;10.23;;
70301;SDS011;57706;56.326;43.882;2023-02-15T01:18:31;23.00;;;9.07;;
70301;SDS011;57706;56.326;43.882;2023-02-15T01:20:57;23.30;;;10.05;;
70301;SDS011;57706;56.326;43.882;2023-02-15T01:23:41;21.65;;;9.45;;
70301;SDS011;57706;56.326;43.882;2023-02-15T01:26:26;19.02;;;8.32;;
70301;SDS011;57706;56.326;43.882;2023-02-15T01:28:53;20.65;;;10.25;;
70301;SDS011;57706;56.326;43.882;2023-02-15T01:31:19;19.45;;;9.80;;
70301;SDS011;57706;56.326;43.882;2023-02-15T01:33:48;19.52;;;9.20;;
70301;SDS011;57706;56.326;43.882;2023-02-15T01:36:14;26.17;;;11.27;;
70301;SDS011;57706;56.326;43.882;2023-02-15T01:38:43;28.00;;;12.60;;
70301;SDS011;57706;56.326;43.882;2023-02-15T01:41:09;25.63;;;10.98;;
70301;SDS011;57706;56.326;43.882;2023-02-15T01:43:54;28.85;;;13.65;;
70301;SDS011;57706;56.326;43.882;2023-02-15T01:46:22;28.83;;;13.45;;
70301;SDS011;57706;56.326;43.882;2023-02-15T01:51:43;23.70;;;11.93;;
70301;SDS011;57706;56.326;43.882;2023-02-15T01:54:24;25.85;;;12.68;;
70301;SDS011;57706;56.326;43.882;2023-02-15T01:56:56;30.55;;;12.05;;
70301;SDS011;57706;56.326;43.882;2023-02-15T01:59:29;24.67;;;11.32;;
70301;SDS011;57706;56.326;43.882;2023-02-15T02:01:58;26.70;;;12.90;;
70301;SDS011;57706;56.326;43.882;2023-02-15T02:07:05;25.80;;;11.55;;
70301;SDS011;57706;56.326;43.882;2023-02-15T02:09:32;26.92;;;11.93;;
70301;SDS011;57706;56.326;43.882;2023-02-15T02:11:57;24.17;;;10.70;;
70301;SDS011;57706;56.326;43.882;2023-02-15T02:14:24;28.38;;;13.00;;
70301;SDS011;57706;56.326;43.882;2023-02-15T02:34:42;20.77;;;10.82;;
70301;SDS011;57706;56.326;43.882;2023-02-15T02:43:25;24.63;;;9.40;;
70301;SDS011;57706;56.326;43.882;2023-02-15T02:45:40;21.58;;;10.00;;
70301;SDS011;57706;56.326;43.882;2023-02-15T02:48:24;21.77;;;9.27;;
70301;SDS011;57706;56.326;43.882;2023-02-15T02:51:11;22.75;;;9.65;;
70301;SDS011;57706;56.326;43.882;2023-02-15T02:53:37;20.75;;;10.05;;
70301;SDS011;57706;56.326;43.882;2023-02-15T02:56:06;22.50;;;10.45;;
70301;SDS011;57706;56.326;43.882;2023-02-15T03:01:39;19.48;;;9.52;;
70301;SDS011;57706;56.326;43.882;2023-02-15T03:04:11;20.30;;;10.77;;
70301;SDS011;57706;56.326;43.882;2023-02-15T03:09:25;25.40;;;11.00;;
70301;SDS011;57706;56.326;43.882;2023-02-15T03:12:00;19.05;;;8.93;;
70301;SDS011;57706;56.326;43.882;2023-02-15T03:14:30;24.75;;;10.05;;
70301;SDS011;57706;56.326;43.882;2023-02-15T03:16:56;21.50;;;10.52;;
70301;SDS011;57706;56.326;43.882;2023-02-15T03:19:25;21.42;;;10.32;;
70301;SDS011;57706;56.326;43.882;2023-02-15T03:22:15;23.52;;;8.90;;
70301;SDS011;57706;56.326;43.882;2023-02-15T03:24:48;24.80;;;9.32;;
70301;SDS011;57706;56.326;43.882;2023-02-15T03:27:39;22.20;;;10.15;;
70301;SDS011;57706;56.326;43.882;2023-02-15T03:30:10;22.83;;;9.80;;
70301;SDS011;57706;56.326;43.882;2023-02-15T03:32:39;22.77;;;9.82;;
70301;SDS011;57706;56.326;43.882;2023-02-15T03:35:09;19.63;;;8.77;;
70301;SDS011;57706;56.326;43.882;2023-02-15T03:37:36;25.52;;;11.10;;
70301;SDS011;57706;56.326;43.882;2023-02-15T03:40:12;24.88;;;9.48;;
70301;SDS011;57706;56.326;43.882;2023-02-15T03:45:47;26.55;;;10.40;;
70301;SDS011;57706;56.326;43.882;2023-02-15T03:51:00;22.88;;;10.77;;
70301;SDS011;57706;56.326;43.882;2023-02-15T03:53:49;20.77;;;8.95;;
70301;SDS011;57706;56.326;43.882;2023-02-15T03:56:17;20.50;;;10.55;;
70301;SDS011;57706;56.326;43.882;2023-02-15T03:58:43;21.30;;;9.63;;
70301;SDS011;57706;56.326;43.882;2023-02-15T04:04:19;25.45;;;9.98;;
70301;SDS011;57706;56.326;43.882;2023-02-15T04:06:47;25.92;;;11.38;;
70301;SDS011;57706;56.326;43.882;2023-02-15T04:09:13;22.02;;;9.93;;
70301;SDS011;57706;56.326;43.882;2023-02-15T04:12:16;22.98;;;9.68;;
70301;SDS011;57706;56.326;43.882;2023-02-15T04:14:42;26.42;;;10.73;;
70301;SDS011;57706;56.326;43.882;2023-02-15T04:17:30;26.27;;;11.25;;
70301;SDS011;57706;56.326;43.882;2023-02-15T04:19:56;22.45;;;10.60;;
70301;SDS011;57706;56.326;43.882;2023-02-15T04:25:25;23.67;;;9.02;;
70301;SDS011;57706;56.326;43.882;2023-02-15T04:27:52;23.00;;;9.30;;
70301;SDS011;57706;56.326;43.882;2023-02-15T04:30:20;21.92;;;10.57;;
70301;SDS011;57706;56.326;43.882;2023-02-15T04:32:48;23.02;;;10.50;;
70301;SDS011;57706;56.326;43.882;2023-02-15T04:35:14;23.52;;;10.75;;
70301;SDS011;57706;56.326;43.882;2023-02-15T04:37:40;24.10;;;10.55;;
70301;SDS011;57706;56.326;43.882;2023-02-15T04:40:07;25.55;;;11.15;;
70301;SDS011;57706;56.326;43.882;2023-02-15T04:42:53;22.23;;;9.45;;
70301;SDS011;57706;56.326;43.882;2023-02-15T04:45:19;24.17;;;10.68;;
70301;SDS011;57706;56.326;43.882;2023-02-15T04:47:45;23.45;;;11.40;;
70301;SDS011;57706;56.326;43.882;2023-02-15T04:50:10;20.73;;;9.60;;
70301;SDS011;57706;56.326;43.882;2023-02-15T04:52:36;22.42;;;10.40;;
70301;SDS011;57706;56.326;43.882;2023-02-15T04:55:02;22.33;;;10.73;;
70301;SDS011;57706;56.326;43.882;2023-02-15T04:57:28;20.85;;;9.77;;
70301;SDS011;57706;56.326;43.882;2023-02-15T04:59:54;21.40;;;10.00;;
70301;SDS011;57706;56.326;43.882;2023-02-15T05:02:20;24.55;;;10.27;;
70301;SDS011;57706;56.326;43.882;2023-02-15T05:04:46;22.73;;;10.98;;
70301;SDS011;57706;56.326;43.882;2023-02-15T05:07:12;25.85;;;11.65;;
70301;SDS011;57706;56.326;43.882;2023-02-15T05:09:40;20.13;;;9.90;;
70301;SDS011;57706;56.326;43.882;2023-02-15T05:12:05;23.58;;;10.70;;
70301;SDS011;57706;56.326;43.882;2023-02-15T05:14:32;21.75;;;10.35;;
70301;SDS011;57706;56.326;43.882;2023-02-15T05:16:57;23.52;;;11.38;;
70301;SDS011;57706;56.326;43.882;2023-02-15T05:19:26;23.92;;;10.68;;
70301;SDS011;57706;56.326;43.882;2023-02-15T05:21:52;23.02;;;11.30;;
70301;SDS011;57706;56.326;43.882;2023-02-15T05:24:18;23.80;;;10.27;;
70301;SDS011;57706;56.326;43.882;2023-02-15T05:27:03;26.23;;;11.50;;
70301;SDS011;57706;56.326;43.882;2023-02-15T05:30:06;23.23;;;10.63;;
70301;SDS011;57706;56.326;43.882;2023-02-15T05:32:37;24.27;;;11.38;;
70301;SDS011;57706;56.326;43.882;2023-02-15T05:35:04;20.42;;;9.65;;
70301;SDS011;57706;56.326;43.882;2023-02-15T05:37:31;23.33;;;11.00;;
70301;SDS011;57706;56.326;43.882;2023-02-15T05:39:57;24.13;;;10.63;;
70301;SDS011;57706;56.326;43.882;2023-02-15T05:42:22;19.65;;;9.20;;
70301;SDS011;57706;56.326;43.882;2023-02-15T05:44:48;20.55;;;9.30;;
70301;SDS011;57706;56.326;43.882;2023-02-15T05:47:14;25.55;;;11.43;;
70301;SDS011;57706;56.326;43.882;2023-02-15T05:49:40;24.67;;;11.27;;
70301;SDS011;57706;56.326;43.882;2023-02-15T05:52:05;23.08;;;11.07;;
70301;SDS011;57706;56.326;43.882;2023-02-15T05:54:31;23.40;;;11.40;;
70301;SDS011;57706;56.326;43.882;2023-02-15T05:56:57;20.63;;;10.13;;
70301;SDS011;57706;56.326;43.882;2023-02-15T05:59:23;24.23;;;10.75;;
70301;SDS011;57706;56.326;43.882;2023-02-15T06:01:49;23.50;;;10.52;;
70301;SDS011;57706;56.326;43.882;2023-02-15T06:04:15;21.75;;;9.77;;
70301;SDS011;57706;56.326;43.882;2023-02-15T06:06:40;22.27;;;10.07;;
70301;SDS011;57706;56.326;43.882;2023-02-15T06:09:25;20.38;;;10.02;;
70301;SDS011;57706;56.326;43.882;2023-02-15T06:11:50;20.65;;;9.18;;
70301;SDS011;57706;56.326;43.882;2023-02-15T06:14:16;17.80;;;9.77;;
70301;SDS011;57706;56.326;43.882;2023-02-15T06:16:42;22.92;;;11.07;;
70301;SDS011;57706;56.326;43.882;2023-02-15T06:19:08;19.27;;;9.35;;
70301;SDS011;57706;56.326;43.882;2023-02-15T06:21:34;18.48;;;8.93;;
70301;SDS011;57706;56.326;43.882;2023-02-15T06:23:59;18.77;;;9.27;;
70301;SDS011;57706;56.326;43.882;2023-02-15T06:26:25;18.83;;;8.93;;
70301;SDS011;57706;56.326;43.882;2023-02-15T06:28:51;17.35;;;9.52;;
70301;SDS011;57706;56.326;43.882;2023-02-15T06:31:17;18.75;;;9.05;;
70301;SDS011;57706;56.326;43.882;2023-02-15T06:33:43;17.63;;;9.15;;
70301;SDS011;57706;56.326;43.882;2023-02-15T06:36:08;17.98;;;9.70;;
70301;SDS011;57706;56.326;43.882;2023-02-15T06:38:34;16.30;;;9.50;;
70301;SDS011;57706;56.326;43.882;2023-02-15T06:41:00;19.70;;;10.18;;
70301;SDS011;57706;56.326;43.882;2023-02-15T06:43:26;16.77;;;9.25;;
70301;SDS011;57706;56.326;43.882;2023-02-15T06:45:52;17.90;;;9.23;;
70301;SDS011;57706;56.326;43.882;2023-02-15T06:48:18;17.10;;;8.55;;
70301;SDS011;57706;56.326;43.882;2023-02-15T06:50:43;14.73;;;8.48;;
70301;SDS011;57706;56.326;43.882;2023-02-15T06:53:09;15.95;;;8.00;;
70301;SDS011;57706;56.326;43.882;2023-02-15T06:55:35;13.48;;;7.90;;
70301;SDS011;57706;56.326;43.882;2023-02-15T06:58:01;15.10;;;8.40;;
70301;SDS011;57706;56.326;43.882;2023-02-15T07:00:27;16.25;;;9.68;;
70301;SDS011;57706;56.326;43.882;2023-02-15T07:02:56;14.57;;;9.02;;
70301;SDS011;57706;56.326;43.882;2023-02-15T07:05:23;15.60;;;7.57;;
70301;SDS011;57706;56.326;43.882;2023-02-15T07:08:08;13.77;;;7.95;;
70301;SDS011;57706;56.326;43.882;2023-02-15T07:10:34;15.63;;;7.97;;
70301;SDS011;57706;56.326;43.882;2023-02-15T07:13:00;14.73;;;7.80;;
70301;SDS011;57706;56.326;43.882;2023-02-15T07:15:26;13.48;;;7.32;;
70301;SDS011;57706;56.326;43.882;2023-02-15T07:17:51;12.48;;;7.70;;
70301;SDS011;57706;56.326;43.882;2023-02-15T07:20:36;13.93;;;9.13;;
70301;SDS011;57706;56.326;43.882;2023-02-15T07:23:03;16.48;;;9.02;;
70301;SDS011;57706;56.326;43.882;2023-02-15T07:25:30;17.30;;;8.35;;
70301;SDS011;57706;56.326;43.882;2023-02-15T07:27:57;16.70;;;8.38;;
70301;SDS011;57706;56.326;43.882;2023-02-15T07:30:23;14.07;;;8.23;;
70301;SDS011;57706;56.326;43.882;2023-02-15T07:32:49;14.27;;;8.50;;
70301;SDS011;57706;56.326;43.882;2023-02-15T07:38:18;15.57;;;8.75;;
70301;SDS011;57706;56.326;43.882;2023-02-15T07:40:44;13.02;;;8.00;;
70301;SDS011;57706;56.326;43.882;2023-02-15T07:43:10;12.82;;;8.13;;
70301;SDS011;57706;56.326;43.882;2023-02-15T07:45:36;15.23;;;9.80;;
70301;SDS011;57706;56.326;43.882;2023-02-15T07:48:02;14.82;;;8.85;;
70301;SDS011;57706;56.326;43.882;2023-02-15T07:50:29;14.52;;;9.52;;
70301;SDS011;57706;56.326;43.882;2023-02-15T07:52:55;13.73;;;7.97;;
70301;SDS011;57706;56.326;43.882;2023-02-15T07:55:20;12.70;;;8.73;;
70301;SDS011;57706;56.326;43.882;2023-02-15T07:57:47;12.05;;;7.93;;
70301;SDS011;57706;56.326;43.882;2023-02-15T08:00:15;13.93;;;9.13;;
70301;SDS011;57706;56.326;43.882;2023-02-15T08:02:47;13.50;;;8.48;;
70301;SDS011;57706;56.326;43.882;2023-02-15T08:05:14;11.50;;;8.95;;
70301;SDS011;57706;56.326;43.882;2023-02-15T08:07:42;13.15;;;8.93;;
70301;SDS011;57706;56.326;43.882;2023-02-15T08:10:08;14.95;;;8.98;;
70301;SDS011;57706;56.326;43.882;2023-02-15T08:12:34;13.63;;;8.25;;
70301;SDS011;57706;56.326;43.882;2023-02-15T08:14:59;13.93;;;9.95;;
70301;SDS011;57706;56.326;43.882;2023-02-15T08:17:25;13.35;;;10.13;;
70301;SDS011;57706;56.326;43.882;2023-02-15T08:19:51;11.65;;;8.70;;
70301;SDS011;57706;56.326;43.882;2023-02-15T08:22:16;11.20;;;8.48;;
70301;SDS011;57706;56.326;43.882;2023-02-15T08:25:01;12.27;;;8.57;;
70301;SDS011;57706;56.326;43.882;2023-02-15T08:27:28;13.35;;;8.65;;
70301;SDS011;57706;56.326;43.882;2023-02-15T08:29:54;12.32;;;9.43;;
70301;SDS011;57706;56.326;43.882;2023-02-15T08:32:20;12.18;;;8.82;;
70301;SDS011;57706;56.326;43.882;2023-02-15T08:34:45;11.40;;;8.40;;
70301;SDS011;57706;56.326;43.882;2023-02-15T08:37:11;12.50;;;9.48;;
70301;SDS011;57706;56.326;43.882;2023-02-15T08:39:37;15.98;;;9.50;;
70301;SDS011;57706;56.326;43.882;2023-02-15T08:42:03;12.35;;;8.98;;
70301;SDS011;57706;56.326;43.882;2023-02-15T08:44:29;10.88;;;9.05;;
70301;SDS011;57706;56.326;43.882;2023-02-15T08:46:55;12.68;;;10.50;;
70301;SDS011;57706;56.326;43.882;2023-02-15T08:49:22;13.15;;;9.48;;
70301;SDS011;57706;56.326;43.882;2023-02-15T08:51:49;13.32;;;10.00;;
70301;SDS011;57706;56.326;43.882;2023-02-15T08:54:16;12.43;;;9.80;;
70301;SDS011;57706;56.326;43.882;2023-02-15T08:56:44;12.65;;;9.90;;
70301;SDS011;57706;56.326;43.882;2023-02-15T08:59:17;12.18;;;9.45;;
70301;SDS011;57706;56.326;43.882;2023-02-15T09:01:45;13.57;;;9.43;;
70301;SDS011;57706;56.326;43.882;2023-02-15T09:04:11;13.25;;;9.75;;
70301;SDS011;57706;56.326;43.882;2023-02-15T09:06:38;12.82;;;9.52;;
70301;SDS011;57706;56.326;43.882;2023-02-15T09:09:05;11.80;;;9.32;;
70301;SDS011;57706;56.326;43.882;2023-02-15T09:11:42;11.25;;;8.90;;
70301;SDS011;57706;56.326;43.882;2023-02-15T09:14:10;13.48;;;9.73;;
70301;SDS011;57706;56.326;43.882;2023-02-15T09:16:42;14.18;;;10.80;;
70301;SDS011;57706;56.326;43.882;2023-02-15T09:19:14;14.07;;;11.00;;
70301;SDS011;57706;56.326;43.882;2023-02-15T09:21:41;12.13;;;9.77;;
70301;SDS011;57706;56.326;43.882;2023-02-15T09:24:08;12.32;;;9.38;;
70301;SDS011;57706;56.326;43.882;2023-02-15T09:26:36;12.55;;;10.13;;
70301;SDS011;57706;56.326;43.882;2023-02-15T09:29:06;13.90;;;9.43;;
70301;SDS011;57706;56.326;43.882;2023-02-15T09:31:42;11.25;;;9.15;;
70301;SDS011;57706;56.326;43.882;2023-02-15T09:34:11;12.10;;;9.48;;
70301;SDS011;57706;56.326;43.882;2023-02-15T09:36:39;12.48;;;9.75;;
70301;SDS011;57706;56.326;43.882;2023-02-15T09:39:15;11.40;;;9.13;;
70301;SDS011;57706;56.326;43.882;2023-02-15T09:41:55;11.98;;;8.68;;
70301;SDS011;57706;56.326;43.882;2023-02-15T09:58:32;12.77;;;8.85;;
70301;SDS011;57706;56.326;43.882;2023-02-15T10:03:58;9.98;;;8.07;;
70301;SDS011;57706;56.326;43.882;2023-02-15T10:27:32;11.88;;;9.40;;
70301;SDS011;57706;56.326;43.882;2023-02-15T10:30:08;10.48;;;8.90;;
70301;SDS011;57706;56.326;43.882;2023-02-15T10:32:59;11.43;;;9.07;;
70301;SDS011;57706;56.326;43.882;2023-02-15T10:51:52;11.02;;;8.02;;
70301;SDS011;57706;56.326;43.882;2023-02-15T10:54:36;12.50;;;8.68;;
70301;SDS011;57706;56.326;43.882;2023-02-15T11:08:10;17.13;;;10.73;;
70301;SDS011;57706;56.326;43.882;2023-02-15T11:10:59;12.60;;;8.93;;
70301;SDS011;57706;56.326;43.882;2023-02-15T11:13:27;13.88;;;9.98;;
70301;SDS011;57706;56.326;43.882;2023-02-15T11:16:11;14.13;;;8.80;;
70301;SDS011;57706;56.326;43.882;2023-02-15T11:18:42;13.57;;;8.25;;
70301;SDS011;57706;56.326;43.882;2023-02-15T11:21:17;10.43;;;7.55;;
70301;SDS011;57706;56.326;43.882;2023-02-15T11:23:51;11.20;;;8.00;;
70301;SDS011;57706;56.326;43.882;2023-02-15T11:31:23;14.43;;;8.40;;
70301;SDS011;57706;56.326;43.882;2023-02-15T11:33:53;13.18;;;8.45;;
70301;SDS011;57706;56.326;43.882;2023-02-15T11:36:32;13.52;;;8.35;;
70301;SDS011;57706;56.326;43.882;2023-02-15T11:39:21;13.23;;;7.95;;
70301;SDS011;57706;56.326;43.882;2023-02-15T11:41:50;12.15;;;7.85;;
70301;SDS011;57706;56.326;43.882;2023-02-15T11:44:30;11.52;;;7.70;;
70301;SDS011;57706;56.326;43.882;2023-02-15T11:47:00;12.95;;;8.55;;
70301;SDS011;57706;56.326;43.882;2023-02-15T11:49:28;13.15;;;8.13;;
70301;SDS011;57706;56.326;43.882;2023-02-15T11:52:03;13.18;;;9.07;;
70301;SDS011;57706;56.326;43.882;2023-02-15T11:54:33;13.57;;;8.40;;
70301;SDS011;57706;56.326;43.882;2023-02-15T11:57:44;13.27;;;8.25;;
70301;SDS011;57706;56.326;43.882;2023-02-15T12:00:10;13.27;;;8.95;;
70301;SDS011;57706;56.326;43.882;2023-02-15T12:02:44;14.85;;;8.40;;
70301;SDS011;57706;56.326;43.882;2023-02-15T12:05:16;14.10;;;8.70;;
70301;SDS011;57706;56.326;43.882;2023-02-15T12:07:52;12.52;;;7.28;;
70301;SDS011;57706;56.326;43.882;2023-02-15T12:10:24;12.52;;;7.55;;
70301;SDS011;57706;56.326;43.882;2023-02-15T12:13:12;11.30;;;7.93;;
70301;SDS011;57706;56.326;43.882;2023-02-15T12:15:44;12.70;;;7.80;;
70301;SDS011;57706;56.326;43.882;2023-02-15T12:20:59;12.85;;;8.20;;
70301;SDS011;57706;56.326;43.882;2023-02-15T12:23:28;11.45;;;6.97;;
70301;SDS011;57706;56.326;43.882;2023-02-15T12:25:55;13.00;;;8.07;;
70301;SDS011;57706;56.326;43.882;2023-02-15T12:28:24;11.38;;;6.70;;
70301;SDS011;57706;56.326;43.882;2023-02-15T12:31:01;11.07;;;6.85;;
70301;SDS011;57706;56.326;43.882;2023-02-15T12:33:35;12.23;;;8.23;;
70301;SDS011;57706;56.326;43.882;2023-02-15T12:38:43;10.32;;;6.78;;
70301;SDS011;57706;56.326;43.882;2023-02-15T12:41:27;12.10;;;7.32;;
70301;SDS011;57706;56.326;43.882;2023-02-15T12:44:18;12.55;;;6.50;;
70301;SDS011;57706;56.326;43.882;2023-02-15T12:47:02;12.40;;;6.93;;
70301;SDS011;57706;56.326;43.882;2023-02-15T12:49:35;12.63;;;7.75;;
70301;SDS011;57706;56.326;43.882;2023-02-15T12:54:43;12.15;;;8.35;;
70301;SDS011;57706;56.326;43.882;2023-02-15T12:59:51;12.98;;;7.55;;
70301;SDS011;57706;56.326;43.882;2023-02-15T13:02:27;13.20;;;7.18;;
70301;SDS011;57706;56.326;43.882;2023-02-15T13:07:58;12.52;;;7.40;;
70301;SDS011;57706;56.326;43.882;2023-02-15T13:10:28;14.48;;;7.93;;
70301;SDS011;57706;56.326;43.882;2023-02-15T13:13:19;12.70;;;8.10;;
70301;SDS011;57706;56.326;43.882;2023-02-15T13:16:04;13.25;;;7.80;;
70301;SDS011;57706;56.326;43.882;2023-02-15T13:18:38;11.32;;;7.15;;
70301;SDS011;57706;56.326;43.882;2023-02-15T13:23:37;13.27;;;7.32;;
70301;SDS011;57706;56.326;43.882;2023-02-15T13:26:05;12.15;;;7.38;;
70301;SDS011;57706;56.326;43.882;2023-02-15T13:28:41;12.07;;;7.82;;
70301;SDS011;57706;56.326;43.882;2023-02-15T13:31:14;14.13;;;7.80;;
70301;SDS011;57706;56.326;43.882;2023-02-15T13:33:48;13.63;;;7.82;;
70301;SDS011;57706;56.326;43.882;2023-02-15T13:36:20;14.45;;;8.18;;
70301;SDS011;57706;56.326;43.882;2023-02-15T13:44:27;14.63;;;8.23;;
70301;SDS011;57706;56.326;43.882;2023-02-15T13:50:19;16.05;;;8.15;;
70301;SDS011;57706;56.326;43.882;2023-02-15T14:01:10;22.00;;;10.63;;
70301;SDS011;57706;56.326;43.882;2023-02-15T14:04:09;22.48;;;10.45;;
70301;SDS011;57706;56.326;43.882;2023-02-15T14:09:37;22.88;;;11.43;;
70301;SDS011;57706;56.326;43.882;2023-02-15T14:17:45;21.13;;;10.25;;
70301;SDS011;57706;56.326;43.882;2023-02-15T14:25:42;20.80;;;10.20;;
70301;SDS011;57706;56.326;43.882;2023-02-15T14:31:01;21.52;;;10.52;;
70301;SDS011;57706;56.326;43.882;2023-02-15T14:33:33;20.67;;;9.85;;
70301;SDS011;57706;56.326;43.882;2023-02-15T14:36:21;20.23;;;9.05;;
70301;SDS011;57706;56.326;43.882;2023-02-15T14:42:18;16.27;;;8.27;;
70301;SDS011;57706;56.326;43.882;2023-02-15T14:44:54;16.58;;;8.73;;
70301;SDS011;57706;56.326;43.882;2023-02-15T14:47:31;14.40;;;7.70;;
70301;SDS011;57706;56.326;43.882;2023-02-15T14:58:33;11.65;;;7.00;;
70301;SDS011;57706;56.326;43.882;2023-02-15T15:01:11;12.55;;;7.03;;
70301;SDS011;57706;56.326;43.882;2023-02-15T15:06:20;11.98;;;6.32;;
70301;SDS011;57706;56.326;43.882;2023-02-15T15:09:00;13.50;;;7.15;;
70301;SDS011;57706;56.326;43.882;2023-02-15T15:11:43;13.55;;;7.85;;
70301;SDS011;57706;56.326;43.882;2023-02-15T15:14:36;16.67;;;8.25;;
70301;SDS011;57706;56.326;43.882;2023-02-15T15:16:57;19.30;;;8.65;;
70301;SDS011;57706;56.326;43.882;2023-02-15T15:22:24;17.60;;;9.18;;
70301;SDS011;57706;56.326;43.882;2023-02-15T15:35:27;12.88;;;7.10;;
70301;SDS011;57706;56.326;43.882;2023-02-15T15:40:47;10.85;;;6.43;;
70301;SDS011;57706;56.326;43.882;2023-02-15T15:46:39;14.30;;;6.65;;
70301;SDS011;57706;56.326;43.882;2023-02-15T15:49:30;11.50;;;6.75;;
70301;SDS011;57706;56.326;43.882;2023-02-15T15:52:02;12.85;;;7.05;;
70301;SDS011;57706;56.326;43.882;2023-02-15T15:54:38;13.85;;;7.22;;
70301;SDS011;57706;56.326;43.882;2023-02-15T15:57:05;12.43;;;6.63;;
70301;SDS011;57706;56.326;43.882;2023-02-15T15:59:37;12.30;;;6.95;;
70301;SDS011;57706;56.326;43.882;2023-02-15T16:02:29;12.75;;;7.03;;
70301;SDS011;57706;56.326;43.882;2023-02-15T16:04:57;13.20;;;6.53;;
70301;SDS011;57706;56.326;43.882;2023-02-15T16:07:32;12.18;;;6.90;;
70301;SDS011;57706;56.326;43.882;2023-02-15T16:10:01;12.95;;;7.15;;
70301;SDS011;57706;56.326;43.882;2023-02-15T16:12:46;11.52;;;6.43;;
70301;SDS011;57706;56.326;43.882;2023-02-15T16:15:23;12.07;;;6.85;;
70301;SDS011;57706;56.326;43.882;2023-02-15T16:17:52;13.02;;;7.05;;
70301;SDS011;57706;56.326;43.882;2023-02-15T16:20:29;16.33;;;7.68;;
70301;SDS011;57706;56.326;43.882;2023-02-15T16:28:39;14.02;;;6.55;;
70301;SDS011;57706;56.326;43.882;2023-02-15T16:31:15;12.55;;;6.82;;
70301;SDS011;57706;56.326;43.882;2023-02-15T16:33:42;12.93;;;6.88;;
70301;SDS011;57706;56.326;43.882;2023-02-15T16:36:10;12.82;;;6.90;;
70301;SDS011;57706;56.326;43.882;2023-02-15T16:41:49;13.98;;;6.78;;
70301;SDS011;57706;56.326;43.882;2023-02-15T16:44:20;11.52;;;6.13;;
70301;SDS011;57706;56.326;43.882;2023-02-15T16:46:47;10.38;;;6.07;;
70301;SDS011;57706;56.326;43.882;2023-02-15T16:49:18;13.60;;;6.28;;
70301;SDS011;57706;56.326;43.882;2023-02-15T16:51:54;10.30;;;6.15;;
70301;SDS011;57706;56.326;43.882;2023-02-15T16:54:28;10.82;;;6.20;;
70301;SDS011;57706;56.326;43.882;2023-02-15T16:56:56;10.85;;;6.35;;
70301;SDS011;57706;56.326;43.882;2023-02-15T17:02:17;12.05;;;6.57;;
70301;SDS011;57706;56.326;43.882;2023-02-15T17:04:45;14.02;;;6.43;;
70301;SDS011;57706;56.326;43.882;2023-02-15T17:10:44;13.20;;;6.35;;
70301;SDS011;57706;56.326;43.882;2023-02-15T17:13:30;12.82;;;6.68;;
70301;SDS011;57706;56.326;43.882;2023-02-15T17:18:26;16.10;;;7.00;;
70301;SDS011;57706;56.326;43.882;2023-02-15T17:20:53;13.35;;;6.85;;
70301;SDS011;57706;56.326;43.882;2023-02-15T17:26:00;13.45;;;6.93;;
70301;SDS011;57706;56.326;43.882;2023-02-15T17:28:36;11.65;;;6.75;;
70301;SDS011;57706;56.326;43.882;2023-02-15T17:31:02;12.73;;;6.72;;
70301;SDS011;57706;56.326;43.882;2023-02-15T17:38:38;11.65;;;6.82;;
70301;SDS011;57706;56.326;43.882;2023-02-15T17:41:05;12.45;;;6.55;;
70301;SDS011;57706;56.326;43.882;2023-02-15T17:43:31;11.32;;;5.95;;
70301;SDS011;57706;56.326;43.882;2023-02-15T17:45:57;12.23;;;6.03;;
70301;SDS011;57706;56.326;43.882;2023-02-15T17:48:27;10.90;;;5.57;;
70301;SDS011;57706;56.326;43.882;2023-02-15T17:51:05;9.80;;;5.90;;
70301;SDS011;57706;56.326;43.882;2023-02-15T17:53:35;13.63;;;6.75;;
70301;SDS011;57706;56.326;43.882;2023-02-15T17:56:01;12.20;;;6.53;;
70301;SDS011;57706;56.326;43.882;2023-02-15T17:58:34;13.20;;;5.93;;
70301;SDS011;57706;56.326;43.882;2023-02-15T18:01:03;11.48;;;6.60;;
70301;SDS011;57706;56.326;43.882;2023-02-15T18:03:56;12.13;;;6.22;;
70301;SDS011;57706;56.326;43.882;2023-02-15T18:06:41;11.75;;;5.68;;
70301;SDS011;57706;56.326;43.882;2023-02-15T18:09:27;9.85;;;5.70;;
70301;SDS011;57706;56.326;43.882;2023-02-15T18:14:47;10.60;;;6.03;;
70301;SDS011;57706;56.326;43.882;2023-02-15T18:17:14;11.18;;;6.63;;
70301;SDS011;57706;56.326;43.882;2023-02-15T18:19:41;11.20;;;6.20;;
70301;SDS011;57706;56.326;43.882;2023-02-15T18:22:17;10.93;;;6.10;;
70301;SDS011;57706;56.326;43.882;2023-02-15T18:24:44;11.38;;;6.30;;
70301;SDS011;57706;56.326;43.882;2023-02-15T18:27:13;11.25;;;6.28;;
70301;SDS011;57706;56.326;43.882;2023-02-15T18:29:40;11.13;;;5.53;;
70301;SDS011;57706;56.326;43.882;2023-02-15T18:32:08;10.20;;;5.40;;
70301;SDS011;57706;56.326;43.882;2023-02-15T18:34:40;10.23;;;5.93;;
70301;SDS011;57706;56.326;43.882;2023-02-15T18:37:11;11.93;;;6.10;;